Changling, China
Current Conditions -  °F | °C
As of 12:00 AM on Tuesday 23 Dec 2014 (Local Time) from ZYCC Reporting Station
Scattered Clouds Scattered Clouds  
Wind Chill: -2°   Ceiling: Unl
Heat Index:   Visibility: 6mi
Dew Point: -2°   Wind: 7mph
Humidity: 62%   Direction: 150°SSE
Pressure: 30.09"   Gusts: NA
Location:  44.27°N, 123.99°E
Report Text: ZYCC 221600Z 15003MPS 130V210 9999 SCT030 M13/M19 Q1019 NOSIG
Loading
Personal Weather Stations






























Interactive Weather Map New forecast layout! Learn more

10-Day Weather Forecast

Advertisements
Track Severe Weather on mobile